Maersk Teal — S6HK — position and weather

sailwx.info

Track history (hours):
 
Tides and Currents Weather Stations Pressure Air Temp Water Temp Dewpoint Dewpoint Depression Visibility Wind Speed Wind Dir Waves Ship Positions

Maersk Teal

Last reported at 2017-Nov-16 06:53 UTC. Time now 2017-Nov-21 02:31 UTC.
Position N 26°09' W 079°32'.

Type: Cargo ship. MMSI: 564755000.

Date/timePositionNaut miles runAvg speedWind from/ knotsBaromVisibWave heightAir tempDewpointWater temp
2017-Nov-16 06:53N 26°09' W 079°32'614.8
2017-Nov-16 06:30N 26°09' W 079°38'714.7
2017-Nov-16 06:00N 26°08' W 079°46'714.6
2017-Nov-16 05:30N 26°07' W 079°54'714.4
2017-Nov-16 05:00N 26°05' W 080°02'4 7.6
2017-Nov-16 04:30N 26°06' W 080°06'1 2.0
2017-Nov-16 04:00N 26°05' W 080°07'0 0.0
2017-Nov-16 03:19N 26°05' W 080°07'0 0.0
2017-Nov-16 02:49N 26°05' W 080°07'0 0.0
2017-Nov-16 02:19N 26°05' W 080°07'0 0.0
2017-Nov-16 01:52N 26°05' W 080°07'0 0.0
2017-Nov-16 01:22N 26°05' W 080°07'0 0.0
2017-Nov-16 00:52N 26°05' W 080°07'0 0.0
2017-Nov-16 00:22N 26°05' W 080°07'0 0.0
2017-Nov-15 23:52N 26°05' W 080°07'0 0.0
2017-Nov-15 23:25N 26°05' W 080°07'0 0.0
2017-Nov-15 22:55N 26°05' W 080°07'0 0.0
2017-Nov-15 22:25N 26°05' W 080°07'0 0.0
2017-Nov-15 21:55N 26°05' W 080°07'0 0.0
2017-Nov-15 21:25N 26°05' W 080°07'0 0.0
2017-Nov-15 20:55N 26°05' W 080°07'0 0.0
2017-Nov-15 20:28N 26°05' W 080°07'0 0.0
2017-Nov-15 19:58N 26°05' W 080°07'0 0.0
2017-Nov-15 19:28N 26°05' W 080°07'0 0.0
2017-Nov-15 18:58N 26°05' W 080°07'0 0.0
2017-Nov-15 18:28N 26°05' W 080°07'0 0.0
2017-Nov-15 17:58N 26°05' W 080°07'0 0.0
2017-Nov-15 17:28N 26°05' W 080°07'0 0.0
2017-Nov-15 16:58N 26°05' W 080°07'0 0.0
2017-Nov-15 16:28N 26°05' W 080°07'0 0.0
2017-Nov-15 15:58N 26°05' W 080°07'0 0.0
2017-Nov-15 15:28N 26°05' W 080°07'0 0.0
2017-Nov-15 14:58N 26°05' W 080°07'0 0.0
2017-Nov-15 14:28N 26°05' W 080°07'0 0.0
2017-Nov-15 13:58N 26°05' W 080°07'0 0.0
2017-Nov-15 13:19N 26°05' W 080°07'0 0.0
2017-Nov-15 12:58N 26°05' W 080°07'0 0.0
2017-Nov-15 12:19N 26°05' W 080°07'0 0.0
2017-Nov-15 11:52N 26°05' W 080°07'0 0.0
2017-Nov-15 11:26N 26°05' W 080°07'1 1.6
2017-Nov-15 11:00N 26°05' W 080°07'4 7.5
2017-Nov-15 10:30N 26°05' W 080°03'3 6.4
2017-Nov-15 10:00N 26°06' W 079°59'3 6.5
2017-Nov-15 09:31N 26°07' W 079°56'4 7.2
2017-Nov-15 09:00N 26°08' W 079°52'4 7.4
2017-Nov-15 08:30N 26°07' W 079°48'510.8
2017-Nov-15 08:00N 26°08' W 079°42'611.0
2017-Nov-15 07:30N 26°09' W 079°36'611.3
2017-Nov-15 07:00N 26°10' W 079°30'  
2017-Nov-09 15:22N 10°17' W 075°32'0 0.0
2017-Nov-09 14:58N 10°17' W 075°32'0 0.0
2017-Nov-09 14:30N 10°17' W 075°32'2 3.6
2017-Nov-09 13:59N 10°19' W 075°33'4 8.7
2017-Nov-09 13:30N 10°23' W 075°31'0 0.3
2017-Nov-09 13:00N 10°22' W 075°31'0 0.0
2017-Nov-09 12:30N 10°22' W 075°31'0 0.0
2017-Nov-09 12:00N 10°22' W 075°31'0 0.0
2017-Nov-09 11:30N 10°22' W 075°31'0 0.0
2017-Nov-09 11:00N 10°22' W 075°31'0 0.0
2017-Nov-09 10:30N 10°22' W 075°31'0 0.0
2017-Nov-09 10:00N 10°22' W 075°31'0 0.0
2017-Nov-09 09:30N 10°22' W 075°31'0 0.0
2017-Nov-09 08:09N 10°22' W 075°31'0 0.0
2017-Nov-09 08:00N 10°22' W 075°31'0 0.0
2017-Nov-09 07:30N 10°22' W 075°31'0 0.0
2017-Nov-09 07:00N 10°22' W 075°31'0 0.0
2017-Nov-09 06:30N 10°22' W 075°31'0 0.0
2017-Nov-09 06:00N 10°22' W 075°31'0 0.0
2017-Nov-09 05:30N 10°22' W 075°31'0 0.0
2017-Nov-09 05:00N 10°22' W 075°31'0 0.0
2017-Nov-09 04:28N 10°22' W 075°31'1 2.7
2017-Nov-09 04:00N 10°22' W 075°32'5 9.3
2017-Nov-09 03:30N 10°19' W 075°35'3 5.8
2017-Nov-09 03:00N 10°19' W 075°38'3 5.8
2017-Nov-09 02:31N 10°19' W 075°41'  
Track history (hours):
 
Tides and Currents Weather Stations Pressure Air Temp Water Temp Dewpoint Dewpoint Depression Visibility Wind Speed Wind Dir Waves Ship Positions

Maersk Teal

Last reported at 2017-Nov-16 06:53 UTC. Time now 2017-Nov-21 02:31 UTC.
Position N 26°09' W 079°32'.

Type: Cargo ship. MMSI: 564755000.

Date/timePositionNaut miles runAvg speedWind from/ knotsBaromVisibWave heightAir tempDewpointWater temp
2017-Nov-16 06:53N 26°09' W 079°32'614.8
2017-Nov-16 06:30N 26°09' W 079°38'714.7
2017-Nov-16 06:00N 26°08' W 079°46'714.6
2017-Nov-16 05:30N 26°07' W 079°54'714.4
2017-Nov-16 05:00N 26°05' W 080°02'4 7.6
2017-Nov-16 04:30N 26°06' W 080°06'1 2.0
2017-Nov-16 04:00N 26°05' W 080°07'0 0.0
2017-Nov-16 03:19N 26°05' W 080°07'0 0.0
2017-Nov-16 02:49N 26°05' W 080°07'0 0.0
2017-Nov-16 02:19N 26°05' W 080°07'0 0.0
2017-Nov-16 01:52N 26°05' W 080°07'0 0.0
2017-Nov-16 01:22N 26°05' W 080°07'0 0.0
2017-Nov-16 00:52N 26°05' W 080°07'0 0.0
2017-Nov-16 00:22N 26°05' W 080°07'0 0.0
2017-Nov-15 23:52N 26°05' W 080°07'0 0.0
2017-Nov-15 23:25N 26°05' W 080°07'0 0.0
2017-Nov-15 22:55N 26°05' W 080°07'0 0.0
2017-Nov-15 22:25N 26°05' W 080°07'0 0.0
2017-Nov-15 21:55N 26°05' W 080°07'0 0.0
2017-Nov-15 21:25N 26°05' W 080°07'0 0.0
2017-Nov-15 20:55N 26°05' W 080°07'0 0.0
2017-Nov-15 20:28N 26°05' W 080°07'0 0.0
2017-Nov-15 19:58N 26°05' W 080°07'0 0.0
2017-Nov-15 19:28N 26°05' W 080°07'0 0.0
2017-Nov-15 18:58N 26°05' W 080°07'0 0.0
2017-Nov-15 18:28N 26°05' W 080°07'0 0.0
2017-Nov-15 17:58N 26°05' W 080°07'0 0.0
2017-Nov-15 17:28N 26°05' W 080°07'0 0.0
2017-Nov-15 16:58N 26°05' W 080°07'0 0.0
2017-Nov-15 16:28N 26°05' W 080°07'0 0.0
2017-Nov-15 15:58N 26°05' W 080°07'0 0.0
2017-Nov-15 15:28N 26°05' W 080°07'0 0.0
2017-Nov-15 14:58N 26°05' W 080°07'0 0.0
2017-Nov-15 14:28N 26°05' W 080°07'0 0.0
2017-Nov-15 13:58N 26°05' W 080°07'0 0.0
2017-Nov-15 13:19N 26°05' W 080°07'0 0.0
2017-Nov-15 12:58N 26°05' W 080°07'0 0.0
2017-Nov-15 12:19N 26°05' W 080°07'0 0.0
2017-Nov-15 11:52N 26°05' W 080°07'0 0.0
2017-Nov-15 11:26N 26°05' W 080°07'1 1.6
2017-Nov-15 11:00N 26°05' W 080°07'4 7.5
2017-Nov-15 10:30N 26°05' W 080°03'3 6.4
2017-Nov-15 10:00N 26°06' W 079°59'3 6.5
2017-Nov-15 09:31N 26°07' W 079°56'4 7.2
2017-Nov-15 09:00N 26°08' W 079°52'4 7.4
2017-Nov-15 08:30N 26°07' W 079°48'510.8
2017-Nov-15 08:00N 26°08' W 079°42'611.0
2017-Nov-15 07:30N 26°09' W 079°36'611.3
2017-Nov-15 07:00N 26°10' W 079°30'  
2017-Nov-09 15:22N 10°17' W 075°32'0 0.0
2017-Nov-09 14:58N 10°17' W 075°32'0 0.0
2017-Nov-09 14:30N 10°17' W 075°32'2 3.6
2017-Nov-09 13:59N 10°19' W 075°33'4 8.7
2017-Nov-09 13:30N 10°23' W 075°31'0 0.3
2017-Nov-09 13:00N 10°22' W 075°31'0 0.0
2017-Nov-09 12:30N 10°22' W 075°31'0 0.0
2017-Nov-09 12:00N 10°22' W 075°31'0 0.0
2017-Nov-09 11:30N 10°22' W 075°31'0 0.0
2017-Nov-09 11:00N 10°22' W 075°31'0 0.0
2017-Nov-09 10:30N 10°22' W 075°31'0 0.0
2017-Nov-09 10:00N 10°22' W 075°31'0 0.0
2017-Nov-09 09:30N 10°22' W 075°31'0 0.0
2017-Nov-09 08:09N 10°22' W 075°31'0 0.0
2017-Nov-09 08:00N 10°22' W 075°31'0 0.0
2017-Nov-09 07:30N 10°22' W 075°31'0 0.0
2017-Nov-09 07:00N 10°22' W 075°31'0 0.0
2017-Nov-09 06:30N 10°22' W 075°31'0 0.0
2017-Nov-09 06:00N 10°22' W 075°31'0 0.0
2017-Nov-09 05:30N 10°22' W 075°31'0 0.0
2017-Nov-09 05:00N 10°22' W 075°31'0 0.0
2017-Nov-09 04:28N 10°22' W 075°31'1 2.7
2017-Nov-09 04:00N 10°22' W 075°32'5 9.3
2017-Nov-09 03:30N 10°19' W 075°35'3 5.8
2017-Nov-09 03:00N 10°19' W 075°38'3 5.8
2017-Nov-09 02:31N 10°19' W 075°41'  

Dump ship's entire track history